sensor_id;sensor_type;location;lat;lon;timestamp;temperature;humidity
50907;DHT22;36882;27.680;85.304;2022-11-03T00:02:25;14.20;90.40
50907;DHT22;36882;27.680;85.304;2022-11-03T00:04:55;14.10;90.60
50907;DHT22;36882;27.680;85.304;2022-11-03T00:07:25;14.10;90.60
50907;DHT22;36882;27.680;85.304;2022-11-03T00:09:57;14.10;90.60
50907;DHT22;36882;27.680;85.304;2022-11-03T00:12:28;14.00;90.90
50907;DHT22;36882;27.680;85.304;2022-11-03T00:14:58;14.00;91.20
50907;DHT22;36882;27.680;85.304;2022-11-03T00:17:28;13.90;91.30
50907;DHT22;36882;27.680;85.304;2022-11-03T00:19:58;14.00;91.20
50907;DHT22;36882;27.680;85.304;2022-11-03T00:22:27;14.00;91.20
50907;DHT22;36882;27.680;85.304;2022-11-03T00:24:58;14.00;91.20
50907;DHT22;36882;27.680;85.304;2022-11-03T00:27:28;14.00;91.00
50907;DHT22;36882;27.680;85.304;2022-11-03T00:29:58;13.90;91.00
50907;DHT22;36882;27.680;85.304;2022-11-03T00:32:28;13.90;91.40
50907;DHT22;36882;27.680;85.304;2022-11-03T00:34:58;13.80;91.70
50907;DHT22;36882;27.680;85.304;2022-11-03T00:37:28;13.90;91.30
50907;DHT22;36882;27.680;85.304;2022-11-03T00:39:58;13.90;91.30
50907;DHT22;36882;27.680;85.304;2022-11-03T00:42:28;13.80;91.30
50907;DHT22;36882;27.680;85.304;2022-11-03T00:44:58;13.80;91.10
50907;DHT22;36882;27.680;85.304;2022-11-03T00:47:28;13.80;91.30
50907;DHT22;36882;27.680;85.304;2022-11-03T00:49:58;13.80;91.40
50907;DHT22;36882;27.680;85.304;2022-11-03T00:52:28;13.90;91.00
50907;DHT22;36882;27.680;85.304;2022-11-03T00:54:57;14.00;90.90
50907;DHT22;36882;27.680;85.304;2022-11-03T00:57:27;13.90;91.00
50907;DHT22;36882;27.680;85.304;2022-11-03T00:59:57;13.90;91.20
50907;DHT22;36882;27.680;85.304;2022-11-03T01:02:27;14.00;91.40
50907;DHT22;36882;27.680;85.304;2022-11-03T01:04:57;14.10;91.30
50907;DHT22;36882;27.680;85.304;2022-11-03T01:07:39;14.10;91.20
50907;DHT22;36882;27.680;85.304;2022-11-03T01:10:09;14.10;91.10
50907;DHT22;36882;27.680;85.304;2022-11-03T01:12:39;14.10;91.00
50907;DHT22;36882;27.680;85.304;2022-11-03T01:15:09;14.30;91.00
50907;DHT22;36882;27.680;85.304;2022-11-03T01:17:39;14.30;90.90
50907;DHT22;36882;27.680;85.304;2022-11-03T01:20:10;14.40;90.50
50907;DHT22;36882;27.680;85.304;2022-11-03T01:22:39;14.60;90.00
50907;DHT22;36882;27.680;85.304;2022-11-03T01:25:09;14.60;89.40
50907;DHT22;36882;27.680;85.304;2022-11-03T01:27:39;14.80;89.20
50907;DHT22;36882;27.680;85.304;2022-11-03T01:30:10;14.90;88.70
50907;DHT22;36882;27.680;85.304;2022-11-03T01:32:39;15.00;88.50
50907;DHT22;36882;27.680;85.304;2022-11-03T01:35:09;15.10;88.50
50907;DHT22;36882;27.680;85.304;2022-11-03T01:37:39;15.20;88.30
50907;DHT22;36882;27.680;85.304;2022-11-03T01:40:09;15.30;88.50
50907;DHT22;36882;27.680;85.304;2022-11-03T01:42:39;15.40;88.40
50907;DHT22;36882;27.680;85.304;2022-11-03T01:45:09;15.60;88.30
50907;DHT22;36882;27.680;85.304;2022-11-03T01:47:40;15.70;88.80
50907;DHT22;36882;27.680;85.304;2022-11-03T01:50:14;15.80;88.00
50907;DHT22;36882;27.680;85.304;2022-11-03T01:52:50;15.90;86.70
50907;DHT22;36882;27.680;85.304;2022-11-03T01:55:26;16.10;86.10
50907;DHT22;36882;27.680;85.304;2022-11-03T01:58:06;16.30;85.50
50907;DHT22;36882;27.680;85.304;2022-11-03T02:00:36;16.40;85.90
50907;DHT22;36882;27.680;85.304;2022-11-03T02:03:06;16.50;85.20
50907;DHT22;36882;27.680;85.304;2022-11-03T02:05:37;16.50;85.70
50907;DHT22;36882;27.680;85.304;2022-11-03T02:08:16;16.50;85.80
50907;DHT22;36882;27.680;85.304;2022-11-03T02:10:48;16.60;85.40
50907;DHT22;36882;27.680;85.304;2022-11-03T02:13:22;16.60;86.20
50907;DHT22;36882;27.680;85.304;2022-11-03T02:15:56;16.60;86.30
50907;DHT22;36882;27.680;85.304;2022-11-03T02:18:30;16.60;85.90
50907;DHT22;36882;27.680;85.304;2022-11-03T02:21:27;16.70;85.60
50907;DHT22;36882;27.680;85.304;2022-11-03T02:24:11;16.70;85.80
50907;DHT22;36882;27.680;85.304;2022-11-03T02:26:43;16.70;85.00
50907;DHT22;36882;27.680;85.304;2022-11-03T02:29:16;16.90;84.00
50907;DHT22;36882;27.680;85.304;2022-11-03T02:31:54;16.90;84.40
50907;DHT22;36882;27.680;85.304;2022-11-03T02:34:38;16.90;84.40
50907;DHT22;36882;27.680;85.304;2022-11-03T02:37:16;17.00;85.20
50907;DHT22;36882;27.680;85.304;2022-11-03T02:39:53;17.10;84.70
50907;DHT22;36882;27.680;85.304;2022-11-03T02:42:26;17.10;84.80
50907;DHT22;36882;27.680;85.304;2022-11-03T02:44:59;17.20;85.90
50907;DHT22;36882;27.680;85.304;2022-11-03T02:47:30;17.30;84.30
50907;DHT22;36882;27.680;85.304;2022-11-03T02:50:05;17.40;85.00
50907;DHT22;36882;27.680;85.304;2022-11-03T02:52:41;17.50;85.70
50907;DHT22;36882;27.680;85.304;2022-11-03T02:55:38;17.50;85.00
50907;DHT22;36882;27.680;85.304;2022-11-03T02:58:26;17.60;84.60
50907;DHT22;36882;27.680;85.304;2022-11-03T03:01:23;17.70;83.40
50907;DHT22;36882;27.680;85.304;2022-11-03T03:03:57;17.80;84.50
50907;DHT22;36882;27.680;85.304;2022-11-03T03:06:32;18.00;84.30
50907;DHT22;36882;27.680;85.304;2022-11-03T03:09:09;18.00;84.40
50907;DHT22;36882;27.680;85.304;2022-11-03T03:11:42;18.10;84.40
50907;DHT22;36882;27.680;85.304;2022-11-03T03:14:28;18.20;84.20
50907;DHT22;36882;27.680;85.304;2022-11-03T03:17:22;18.30;83.40
50907;DHT22;36882;27.680;85.304;2022-11-03T03:20:00;18.40;84.50
50907;DHT22;36882;27.680;85.304;2022-11-03T03:22:38;18.50;84.20
50907;DHT22;36882;27.680;85.304;2022-11-03T03:25:30;18.50;83.20
50907;DHT22;36882;27.680;85.304;2022-11-03T03:28:10;18.60;83.10
50907;DHT22;36882;27.680;85.304;2022-11-03T03:30:43;18.60;83.60
50907;DHT22;36882;27.680;85.304;2022-11-03T03:33:15;18.70;83.50
50907;DHT22;36882;27.680;85.304;2022-11-03T03:35:48;18.80;82.40
50907;DHT22;36882;27.680;85.304;2022-11-03T03:38:23;18.80;83.30
50907;DHT22;36882;27.680;85.304;2022-11-03T03:40:56;18.80;82.50
50907;DHT22;36882;27.680;85.304;2022-11-03T03:43:31;18.70;83.10
50907;DHT22;36882;27.680;85.304;2022-11-03T03:46:06;18.70;83.70
50907;DHT22;36882;27.680;85.304;2022-11-03T03:48:39;18.70;84.40
50907;DHT22;36882;27.680;85.304;2022-11-03T03:51:10;18.90;84.70
50907;DHT22;36882;27.680;85.304;2022-11-03T03:53:41;19.00;84.60
50907;DHT22;36882;27.680;85.304;2022-11-03T03:56:11;19.10;84.40
50907;DHT22;36882;27.680;85.304;2022-11-03T03:58:41;19.30;83.00
50907;DHT22;36882;27.680;85.304;2022-11-03T04:01:12;19.30;83.40
50907;DHT22;36882;27.680;85.304;2022-11-03T04:03:42;19.30;83.80
50907;DHT22;36882;27.680;85.304;2022-11-03T04:06:12;19.30;84.80
50907;DHT22;36882;27.680;85.304;2022-11-03T04:08:42;19.30;84.20
50907;DHT22;36882;27.680;85.304;2022-11-03T04:11:11;19.50;84.00
50907;DHT22;36882;27.680;85.304;2022-11-03T04:14:00;19.60;84.60
50907;DHT22;36882;27.680;85.304;2022-11-03T04:16:41;19.70;85.30
50907;DHT22;36882;27.680;85.304;2022-11-03T04:19:21;19.90;86.00
50907;DHT22;36882;27.680;85.304;2022-11-03T04:22:01;20.00;85.20
50907;DHT22;36882;27.680;85.304;2022-11-03T04:24:42;20.20;85.00
50907;DHT22;36882;27.680;85.304;2022-11-03T04:27:30;20.30;84.00
50907;DHT22;36882;27.680;85.304;2022-11-03T04:30:15;20.40;84.90
50907;DHT22;36882;27.680;85.304;2022-11-03T04:32:48;20.50;85.10
50907;DHT22;36882;27.680;85.304;2022-11-03T04:35:23;20.60;84.80
50907;DHT22;36882;27.680;85.304;2022-11-03T04:38:00;20.70;84.20
50907;DHT22;36882;27.680;85.304;2022-11-03T04:40:32;20.90;83.00
50907;DHT22;36882;27.680;85.304;2022-11-03T04:43:08;20.90;82.70
50907;DHT22;36882;27.680;85.304;2022-11-03T04:45:39;21.00;81.60
50907;DHT22;36882;27.680;85.304;2022-11-03T04:48:15;21.10;82.30
50907;DHT22;36882;27.680;85.304;2022-11-03T04:50:46;21.10;81.20
50907;DHT22;36882;27.680;85.304;2022-11-03T04:53:18;21.10;80.80
50907;DHT22;36882;27.680;85.304;2022-11-03T04:55:51;21.00;81.30
50907;DHT22;36882;27.680;85.304;2022-11-03T04:58:29;21.10;81.70
50907;DHT22;36882;27.680;85.304;2022-11-03T05:01:02;21.20;80.80
50907;DHT22;36882;27.680;85.304;2022-11-03T05:03:34;21.30;81.50
50907;DHT22;36882;27.680;85.304;2022-11-03T05:06:15;21.30;79.40
50907;DHT22;36882;27.680;85.304;2022-11-03T05:08:50;21.40;79.50
50907;DHT22;36882;27.680;85.304;2022-11-03T05:11:40;21.40;80.20
50907;DHT22;36882;27.680;85.304;2022-11-03T05:14:19;21.50;79.20
50907;DHT22;36882;27.680;85.304;2022-11-03T05:16:51;21.60;79.40
50907;DHT22;36882;27.680;85.304;2022-11-03T05:19:32;21.60;78.20
50907;DHT22;36882;27.680;85.304;2022-11-03T05:22:03;21.70;79.20
50907;DHT22;36882;27.680;85.304;2022-11-03T05:24:35;21.80;76.30
50907;DHT22;36882;27.680;85.304;2022-11-03T05:27:08;21.90;74.20
50907;DHT22;36882;27.680;85.304;2022-11-03T05:29:41;22.00;72.00
50907;DHT22;36882;27.680;85.304;2022-11-03T05:32:15;22.00;71.70
50907;DHT22;36882;27.680;85.304;2022-11-03T05:34:50;22.10;72.50
50907;DHT22;36882;27.680;85.304;2022-11-03T05:37:26;22.20;73.70
50907;DHT22;36882;27.680;85.304;2022-11-03T05:40:18;22.50;71.30
50907;DHT22;36882;27.680;85.304;2022-11-03T05:42:57;22.50;69.00
50907;DHT22;36882;27.680;85.304;2022-11-03T05:45:36;22.50;71.80
50907;DHT22;36882;27.680;85.304;2022-11-03T05:48:29;22.50;69.80
50907;DHT22;36882;27.680;85.304;2022-11-03T05:51:09;22.60;68.10
50907;DHT22;36882;27.680;85.304;2022-11-03T05:53:43;22.50;67.70
50907;DHT22;36882;27.680;85.304;2022-11-03T05:56:18;22.60;64.50
50907;DHT22;36882;27.680;85.304;2022-11-03T05:58:52;22.70;63.80
50907;DHT22;36882;27.680;85.304;2022-11-03T06:01:39;22.80;64.00
50907;DHT22;36882;27.680;85.304;2022-11-03T06:04:19;22.80;64.90
50907;DHT22;36882;27.680;85.304;2022-11-03T06:06:55;22.80;64.90
50907;DHT22;36882;27.680;85.304;2022-11-03T06:09:27;22.80;65.80
50907;DHT22;36882;27.680;85.304;2022-11-03T06:11:59;22.90;64.90
50907;DHT22;36882;27.680;85.304;2022-11-03T06:14:30;23.00;62.20
50907;DHT22;36882;27.680;85.304;2022-11-03T06:17:05;23.00;64.20
50907;DHT22;36882;27.680;85.304;2022-11-03T06:19:39;23.10;64.40
50907;DHT22;36882;27.680;85.304;2022-11-03T06:22:19;23.20;64.20
50907;DHT22;36882;27.680;85.304;2022-11-03T06:25:00;23.30;62.70
50907;DHT22;36882;27.680;85.304;2022-11-03T06:27:39;23.20;64.80
50907;DHT22;36882;27.680;85.304;2022-11-03T06:30:28;23.10;65.10
50907;DHT22;36882;27.680;85.304;2022-11-03T06:33:00;23.20;63.00
50907;DHT22;36882;27.680;85.304;2022-11-03T06:35:31;23.10;63.20
50907;DHT22;36882;27.680;85.304;2022-11-03T06:38:01;23.20;63.20
50907;DHT22;36882;27.680;85.304;2022-11-03T06:40:34;23.30;62.80
50907;DHT22;36882;27.680;85.304;2022-11-03T06:43:42;23.30;64.00
50907;DHT22;36882;27.680;85.304;2022-11-03T06:46:13;23.40;58.50
50907;DHT22;36882;27.680;85.304;2022-11-03T06:48:44;23.40;60.50
50907;DHT22;36882;27.680;85.304;2022-11-03T06:51:19;23.50;59.60
50907;DHT22;36882;27.680;85.304;2022-11-03T06:53:51;23.60;56.40
50907;DHT22;36882;27.680;85.304;2022-11-03T06:56:23;23.60;57.90
50907;DHT22;36882;27.680;85.304;2022-11-03T06:58:56;23.70;56.80
50907;DHT22;36882;27.680;85.304;2022-11-03T07:01:31;23.70;58.30
50907;DHT22;36882;27.680;85.304;2022-11-03T07:04:04;23.70;59.00
50907;DHT22;36882;27.680;85.304;2022-11-03T07:06:41;23.80;56.90
50907;DHT22;36882;27.680;85.304;2022-11-03T07:09:21;23.80;57.40
50907;DHT22;36882;27.680;85.304;2022-11-03T07:11:57;23.90;56.90
50907;DHT22;36882;27.680;85.304;2022-11-03T07:14:30;23.90;57.10
50907;DHT22;36882;27.680;85.304;2022-11-03T07:17:04;23.80;58.80
50907;DHT22;36882;27.680;85.304;2022-11-03T07:19:39;23.70;59.70
50907;DHT22;36882;27.680;85.304;2022-11-03T07:22:24;23.80;60.30
50907;DHT22;36882;27.680;85.304;2022-11-03T07:24:58;24.00;59.90
50907;DHT22;36882;27.680;85.304;2022-11-03T07:27:33;24.00;60.00
50907;DHT22;36882;27.680;85.304;2022-11-03T07:30:20;23.90;59.60
50907;DHT22;36882;27.680;85.304;2022-11-03T07:32:52;23.90;59.30
50907;DHT22;36882;27.680;85.304;2022-11-03T07:35:41;23.80;60.70
50907;DHT22;36882;27.680;85.304;2022-11-03T07:38:32;23.90;61.00
50907;DHT22;36882;27.680;85.304;2022-11-03T07:41:02;23.90;60.50
50907;DHT22;36882;27.680;85.304;2022-11-03T07:43:34;23.90;59.20
50907;DHT22;36882;27.680;85.304;2022-11-03T07:46:07;23.90;60.80
50907;DHT22;36882;27.680;85.304;2022-11-03T07:48:47;23.90;60.10
50907;DHT22;36882;27.680;85.304;2022-11-03T07:51:31;24.00;59.20
50907;DHT22;36882;27.680;85.304;2022-11-03T07:54:17;24.00;62.20
50907;DHT22;36882;27.680;85.304;2022-11-03T07:59:44;24.10;60.60
50907;DHT22;36882;27.680;85.304;2022-11-03T08:02:33;24.10;62.80
50907;DHT22;36882;27.680;85.304;2022-11-03T08:05:05;24.10;64.10
50907;DHT22;36882;27.680;85.304;2022-11-03T08:07:35;23.90;63.80
50907;DHT22;36882;27.680;85.304;2022-11-03T08:10:05;23.90;64.20
50907;DHT22;36882;27.680;85.304;2022-11-03T08:12:35;23.90;62.70
50907;DHT22;36882;27.680;85.304;2022-11-03T08:15:05;23.70;62.20
50907;DHT22;36882;27.680;85.304;2022-11-03T08:17:35;23.60;65.20
50907;DHT22;36882;27.680;85.304;2022-11-03T08:20:05;23.70;64.80
50907;DHT22;36882;27.680;85.304;2022-11-03T08:22:36;23.70;63.40
50907;DHT22;36882;27.680;85.304;2022-11-03T08:25:09;23.60;62.20
50907;DHT22;36882;27.680;85.304;2022-11-03T08:27:42;23.60;62.20
50907;DHT22;36882;27.680;85.304;2022-11-03T08:30:13;23.60;61.80
50907;DHT22;36882;27.680;85.304;2022-11-03T08:32:43;23.70;61.00
50907;DHT22;36882;27.680;85.304;2022-11-03T08:35:12;23.70;60.90
50907;DHT22;36882;27.680;85.304;2022-11-03T08:37:42;23.60;58.50
50907;DHT22;36882;27.680;85.304;2022-11-03T08:40:12;23.50;60.10
50907;DHT22;36882;27.680;85.304;2022-11-03T08:42:41;23.50;61.40
50907;DHT22;36882;27.680;85.304;2022-11-03T08:45:12;23.50;60.10
50907;DHT22;36882;27.680;85.304;2022-11-03T08:47:41;23.50;60.00
50907;DHT22;36882;27.680;85.304;2022-11-03T08:50:11;23.50;61.20
50907;DHT22;36882;27.680;85.304;2022-11-03T08:52:41;23.50;61.70
50907;DHT22;36882;27.680;85.304;2022-11-03T08:55:12;23.50;61.40
50907;DHT22;36882;27.680;85.304;2022-11-03T08:57:42;23.40;61.90
50907;DHT22;36882;27.680;85.304;2022-11-03T09:00:13;23.40;62.50
50907;DHT22;36882;27.680;85.304;2022-11-03T09:02:45;23.30;62.10
50907;DHT22;36882;27.680;85.304;2022-11-03T09:05:16;23.30;62.60
50907;DHT22;36882;27.680;85.304;2022-11-03T09:07:47;23.30;62.90
50907;DHT22;36882;27.680;85.304;2022-11-03T09:10:37;23.30;62.20
50907;DHT22;36882;27.680;85.304;2022-11-03T09:13:09;23.30;61.90
50907;DHT22;36882;27.680;85.304;2022-11-03T09:15:40;23.30;62.80
50907;DHT22;36882;27.680;85.304;2022-11-03T09:18:10;23.30;62.00
50907;DHT22;36882;27.680;85.304;2022-11-03T09:20:41;23.30;63.40
50907;DHT22;36882;27.680;85.304;2022-11-03T09:23:11;23.30;63.80
50907;DHT22;36882;27.680;85.304;2022-11-03T09:25:42;23.30;64.70
50907;DHT22;36882;27.680;85.304;2022-11-03T09:28:12;23.30;64.00
50907;DHT22;36882;27.680;85.304;2022-11-03T09:30:43;23.30;64.20
50907;DHT22;36882;27.680;85.304;2022-11-03T09:33:13;23.30;62.10
50907;DHT22;36882;27.680;85.304;2022-11-03T09:35:44;23.30;63.00
50907;DHT22;36882;27.680;85.304;2022-11-03T09:38:14;23.30;62.90
50907;DHT22;36882;27.680;85.304;2022-11-03T09:40:44;23.30;63.90
50907;DHT22;36882;27.680;85.304;2022-11-03T09:43:14;23.20;64.10
50907;DHT22;36882;27.680;85.304;2022-11-03T09:45:45;23.10;64.80
50907;DHT22;36882;27.680;85.304;2022-11-03T09:48:15;23.00;63.70
50907;DHT22;36882;27.680;85.304;2022-11-03T09:50:50;23.00;65.40
50907;DHT22;36882;27.680;85.304;2022-11-03T09:53:22;23.00;65.00
50907;DHT22;36882;27.680;85.304;2022-11-03T09:55:53;23.00;66.50
50907;DHT22;36882;27.680;85.304;2022-11-03T09:58:25;22.90;67.40
50907;DHT22;36882;27.680;85.304;2022-11-03T10:00:56;22.80;68.20
50907;DHT22;36882;27.680;85.304;2022-11-03T10:03:26;22.70;68.20
50907;DHT22;36882;27.680;85.304;2022-11-03T10:05:57;22.70;68.80
50907;DHT22;36882;27.680;85.304;2022-11-03T10:08:30;22.60;69.80
50907;DHT22;36882;27.680;85.304;2022-11-03T10:11:01;22.60;69.50
50907;DHT22;36882;27.680;85.304;2022-11-03T10:13:45;22.60;70.10
50907;DHT22;36882;27.680;85.304;2022-11-03T10:16:20;22.60;71.10
50907;DHT22;36882;27.680;85.304;2022-11-03T10:18:51;22.50;71.40
50907;DHT22;36882;27.680;85.304;2022-11-03T10:21:28;22.50;71.10
50907;DHT22;36882;27.680;85.304;2022-11-03T10:23:59;22.50;71.60
50907;DHT22;36882;27.680;85.304;2022-11-03T10:26:43;22.40;71.80
50907;DHT22;36882;27.680;85.304;2022-11-03T10:29:18;22.40;73.00
50907;DHT22;36882;27.680;85.304;2022-11-03T10:31:52;22.30;72.90
50907;DHT22;36882;27.680;85.304;2022-11-03T10:37:21;22.30;73.10
50907;DHT22;36882;27.680;85.304;2022-11-03T10:39:54;22.30;74.00
50907;DHT22;36882;27.680;85.304;2022-11-03T10:42:29;22.30;74.50
50907;DHT22;36882;27.680;85.304;2022-11-03T10:45:15;22.20;73.90
50907;DHT22;36882;27.680;85.304;2022-11-03T10:48:00;22.20;74.80
50907;DHT22;36882;27.680;85.304;2022-11-03T10:50:32;22.10;74.60
50907;DHT22;36882;27.680;85.304;2022-11-03T10:53:02;22.10;74.60
50907;DHT22;36882;27.680;85.304;2022-11-03T10:55:34;22.00;75.30
50907;DHT22;36882;27.680;85.304;2022-11-03T10:58:05;22.00;76.00
50907;DHT22;36882;27.680;85.304;2022-11-03T11:00:38;21.90;74.70
50907;DHT22;36882;27.680;85.304;2022-11-03T11:03:11;21.80;74.90
50907;DHT22;36882;27.680;85.304;2022-11-03T11:05:48;21.70;75.30
50907;DHT22;36882;27.680;85.304;2022-11-03T11:08:22;21.70;75.40
50907;DHT22;36882;27.680;85.304;2022-11-03T11:10:53;21.70;76.30
50907;DHT22;36882;27.680;85.304;2022-11-03T11:13:25;21.60;76.20
50907;DHT22;36882;27.680;85.304;2022-11-03T11:15:58;21.50;76.60
50907;DHT22;36882;27.680;85.304;2022-11-03T11:19:02;21.50;77.20
50907;DHT22;36882;27.680;85.304;2022-11-03T11:21:59;21.40;77.10
50907;DHT22;36882;27.680;85.304;2022-11-03T11:24:54;21.30;77.80
50907;DHT22;36882;27.680;85.304;2022-11-03T11:30:55;21.20;76.50
50907;DHT22;36882;27.680;85.304;2022-11-03T11:33:29;21.10;77.60
50907;DHT22;36882;27.680;85.304;2022-11-03T11:36:04;21.00;77.60
50907;DHT22;36882;27.680;85.304;2022-11-03T11:38:55;20.90;77.40
50907;DHT22;36882;27.680;85.304;2022-11-03T11:44:46;20.80;78.50
50907;DHT22;36882;27.680;85.304;2022-11-03T11:50:23;20.70;78.40
50907;DHT22;36882;27.680;85.304;2022-11-03T11:53:00;20.60;78.50
50907;DHT22;36882;27.680;85.304;2022-11-03T11:55:57;20.60;78.70
50907;DHT22;36882;27.680;85.304;2022-11-03T11:58:45;20.50;79.50
50907;DHT22;36882;27.680;85.304;2022-11-03T12:01:30;20.50;80.40
50907;DHT22;36882;27.680;85.304;2022-11-03T12:04:14;20.40;80.80
50907;DHT22;36882;27.680;85.304;2022-11-03T12:06:48;20.40;80.80
50907;DHT22;36882;27.680;85.304;2022-11-03T12:09:21;20.40;80.90
50907;DHT22;36882;27.680;85.304;2022-11-03T12:11:54;20.40;81.90
50907;DHT22;36882;27.680;85.304;2022-11-03T12:14:36;20.30;81.70
50907;DHT22;36882;27.680;85.304;2022-11-03T12:17:30;20.40;82.30
50907;DHT22;36882;27.680;85.304;2022-11-03T12:23:02;20.20;82.70
50907;DHT22;36882;27.680;85.304;2022-11-03T12:25:35;20.20;82.60
50907;DHT22;36882;27.680;85.304;2022-11-03T12:28:06;20.20;82.70
50907;DHT22;36882;27.680;85.304;2022-11-03T12:30:37;20.20;83.10
50907;DHT22;36882;27.680;85.304;2022-11-03T12:33:07;20.20;83.70
50907;DHT22;36882;27.680;85.304;2022-11-03T12:35:39;20.20;83.90
50907;DHT22;36882;27.680;85.304;2022-11-03T12:38:09;20.10;84.10
50907;DHT22;36882;27.680;85.304;2022-11-03T12:40:39;20.10;83.90
50907;DHT22;36882;27.680;85.304;2022-11-03T12:43:10;20.10;84.40
50907;DHT22;36882;27.680;85.304;2022-11-03T12:45:40;20.10;85.20
50907;DHT22;36882;27.680;85.304;2022-11-03T12:48:11;20.10;84.80
50907;DHT22;36882;27.680;85.304;2022-11-03T12:50:41;20.00;85.30
50907;DHT22;36882;27.680;85.304;2022-11-03T12:53:12;20.00;85.80
50907;DHT22;36882;27.680;85.304;2022-11-03T12:55:41;19.90;85.70
50907;DHT22;36882;27.680;85.304;2022-11-03T12:58:12;19.90;85.70
50907;DHT22;36882;27.680;85.304;2022-11-03T13:00:42;19.90;86.20
50907;DHT22;36882;27.680;85.304;2022-11-03T13:03:21;19.90;85.90
50907;DHT22;36882;27.680;85.304;2022-11-03T13:05:51;19.90;86.50
50907;DHT22;36882;27.680;85.304;2022-11-03T13:08:21;19.90;86.90
50907;DHT22;36882;27.680;85.304;2022-11-03T13:10:51;19.80;87.20
50907;DHT22;36882;27.680;85.304;2022-11-03T13:13:21;19.80;87.20
50907;DHT22;36882;27.680;85.304;2022-11-03T13:15:52;19.80;87.00
50907;DHT22;36882;27.680;85.304;2022-11-03T13:18:22;19.80;87.00
50907;DHT22;36882;27.680;85.304;2022-11-03T13:20:53;19.70;87.60
50907;DHT22;36882;27.680;85.304;2022-11-03T13:23:23;19.70;87.80
50907;DHT22;36882;27.680;85.304;2022-11-03T13:25:54;19.60;87.50
50907;DHT22;36882;27.680;85.304;2022-11-03T13:28:24;19.60;88.00
50907;DHT22;36882;27.680;85.304;2022-11-03T13:30:55;19.60;88.10
50907;DHT22;36882;27.680;85.304;2022-11-03T13:33:25;19.60;88.40
50907;DHT22;36882;27.680;85.304;2022-11-03T13:35:55;19.60;88.00
50907;DHT22;36882;27.680;85.304;2022-11-03T13:38:26;19.50;88.20
50907;DHT22;36882;27.680;85.304;2022-11-03T13:40:56;19.50;88.90
50907;DHT22;36882;27.680;85.304;2022-11-03T13:43:34;19.50;88.90
50907;DHT22;36882;27.680;85.304;2022-11-03T13:46:05;19.40;89.10
50907;DHT22;36882;27.680;85.304;2022-11-03T13:48:35;19.40;89.40
50907;DHT22;36882;27.680;85.304;2022-11-03T13:51:26;19.40;89.90
50907;DHT22;36882;27.680;85.304;2022-11-03T13:53:55;19.30;89.80
50907;DHT22;36882;27.680;85.304;2022-11-03T13:56:46;19.30;90.00
50907;DHT22;36882;27.680;85.304;2022-11-03T13:59:37;19.20;90.00
50907;DHT22;36882;27.680;85.304;2022-11-03T14:02:08;19.20;90.00
50907;DHT22;36882;27.680;85.304;2022-11-03T14:04:58;19.20;90.20
50907;DHT22;36882;27.680;85.304;2022-11-03T14:07:35;19.10;90.10
50907;DHT22;36882;27.680;85.304;2022-11-03T14:10:07;19.10;90.20
50907;DHT22;36882;27.680;85.304;2022-11-03T14:12:41;19.10;90.10
50907;DHT22;36882;27.680;85.304;2022-11-03T14:15:12;19.10;90.00
50907;DHT22;36882;27.680;85.304;2022-11-03T14:17:42;19.10;90.00
50907;DHT22;36882;27.680;85.304;2022-11-03T14:20:13;19.10;90.00
50907;DHT22;36882;27.680;85.304;2022-11-03T14:22:44;19.00;89.80
50907;DHT22;36882;27.680;85.304;2022-11-03T14:25:14;19.00;90.00
50907;DHT22;36882;27.680;85.304;2022-11-03T14:27:46;19.00;90.10
50907;DHT22;36882;27.680;85.304;2022-11-03T14:30:17;19.00;90.10
50907;DHT22;36882;27.680;85.304;2022-11-03T14:32:47;19.00;90.00
50907;DHT22;36882;27.680;85.304;2022-11-03T14:35:23;19.00;89.80
50907;DHT22;36882;27.680;85.304;2022-11-03T14:37:53;19.00;90.00
50907;DHT22;36882;27.680;85.304;2022-11-03T14:40:23;18.90;90.10
50907;DHT22;36882;27.680;85.304;2022-11-03T14:43:09;18.80;90.60
50907;DHT22;36882;27.680;85.304;2022-11-03T14:45:40;18.80;90.80
50907;DHT22;36882;27.680;85.304;2022-11-03T14:48:10;18.70;90.80
50907;DHT22;36882;27.680;85.304;2022-11-03T14:50:40;18.70;90.70
50907;DHT22;36882;27.680;85.304;2022-11-03T14:53:10;18.60;91.00
50907;DHT22;36882;27.680;85.304;2022-11-03T14:55:40;18.50;91.20
50907;DHT22;36882;27.680;85.304;2022-11-03T14:58:10;18.40;91.30
50907;DHT22;36882;27.680;85.304;2022-11-03T15:00:40;18.30;91.50
50907;DHT22;36882;27.680;85.304;2022-11-03T15:03:10;18.30;91.40
50907;DHT22;36882;27.680;85.304;2022-11-03T15:05:40;18.30;91.40
50907;DHT22;36882;27.680;85.304;2022-11-03T15:08:16;18.30;91.30
50907;DHT22;36882;27.680;85.304;2022-11-03T15:10:47;18.30;91.40
50907;DHT22;36882;27.680;85.304;2022-11-03T15:13:17;18.30;91.30
50907;DHT22;36882;27.680;85.304;2022-11-03T15:15:48;18.30;91.30
50907;DHT22;36882;27.680;85.304;2022-11-03T15:18:19;18.20;91.50
50907;DHT22;36882;27.680;85.304;2022-11-03T15:20:51;18.20;91.40
50907;DHT22;36882;27.680;85.304;2022-11-03T15:23:22;18.20;91.50
50907;DHT22;36882;27.680;85.304;2022-11-03T15:26:13;18.20;91.40
50907;DHT22;36882;27.680;85.304;2022-11-03T15:28:43;18.20;91.20
50907;DHT22;36882;27.680;85.304;2022-11-03T15:31:13;18.20;91.20
50907;DHT22;36882;27.680;85.304;2022-11-03T15:33:44;18.20;91.10
50907;DHT22;36882;27.680;85.304;2022-11-03T15:36:14;18.10;91.20
50907;DHT22;36882;27.680;85.304;2022-11-03T15:38:45;18.10;91.20
50907;DHT22;36882;27.680;85.304;2022-11-03T15:41:15;18.10;91.40
50907;DHT22;36882;27.680;85.304;2022-11-03T15:43:47;18.10;91.80
50907;DHT22;36882;27.680;85.304;2022-11-03T15:46:18;18.00;91.80
50907;DHT22;36882;27.680;85.304;2022-11-03T15:48:49;17.90;91.80
50907;DHT22;36882;27.680;85.304;2022-11-03T15:51:20;18.00;91.90
50907;DHT22;36882;27.680;85.304;2022-11-03T15:53:50;17.90;91.90
50907;DHT22;36882;27.680;85.304;2022-11-03T15:56:26;17.80;92.10
50907;DHT22;36882;27.680;85.304;2022-11-03T15:58:56;17.90;92.20
50907;DHT22;36882;27.680;85.304;2022-11-03T16:01:26;17.80;92.50
50907;DHT22;36882;27.680;85.304;2022-11-03T16:03:57;17.80;92.10
50907;DHT22;36882;27.680;85.304;2022-11-03T16:06:26;17.90;92.10
50907;DHT22;36882;27.680;85.304;2022-11-03T16:09:17;17.80;91.90
50907;DHT22;36882;27.680;85.304;2022-11-03T16:11:46;17.80;91.90
50907;DHT22;36882;27.680;85.304;2022-11-03T16:14:18;17.80;92.00
50907;DHT22;36882;27.680;85.304;2022-11-03T16:16:48;17.80;92.00
50907;DHT22;36882;27.680;85.304;2022-11-03T16:19:18;17.70;92.20